Lubbock, Texas
Current Conditions -  °F | °C
As of 3:53 PM on Friday 28 Nov 2014 (Local Time) from KLBB Reporting Station
Broken Clouds Broken Clouds  
Wind Chill: 77°   Ceiling: 30000
Heat Index: 77°   Visibility: 10mi
Dew Point: 26°   Wind: 15mph
Humidity: 15%   Direction: 230°SW
Pressure: 29.96"   Gusts: 24mph
Location:  33.59°N, 101.85°W
Report Text: KLBB 282153Z 23013G21KT 10SM FEW260 BKN300 25/M03 A2996 RMK AO2 SLP115 T02501033
Loading
Personal Weather Stations






























Interactive Weather Map New forecast layout! Learn more

10-Day Weather Forecast

Advertisements
Track Severe Weather on mobile